Abercrombie, North Dakota
Current Conditions -  °F | °C
As of 9:35 AM on Thursday 30 Oct 2014 (Local Time) from KBWP Reporting Station
Overcast Overcast  
Wind Chill: -1°   Ceiling: 600
Heat Index:   Visibility: 1.7mi
Dew Point:   Wind: 12mph
Humidity: 93%   Direction: 10°N
Pressure: 30.13"   Gusts: NA
Location:  46.45°N, 96.73°W
Report Text: KBWP 301435Z AUTO 01010KT 1 3/4SM OVC006 03/02 A3013 RMK AO1
Loading
Personal Weather Stations






























Interactive Weather Map New forecast layout! Learn more

10-Day Weather Forecast

Advertisements
Track Severe Weather on mobile